createdAt,value
2024-02-08T00:00:51.718Z,95766.56
2024-02-08T00:03:19.367Z,95768.44
2024-02-08T00:05:47.011Z,95767.47
2024-02-08T00:08:16.005Z,95767.94
2024-02-08T00:10:44.012Z,95763.19
2024-02-08T00:13:14.292Z,95751.72
2024-02-08T00:15:42.038Z,95750.66
2024-02-08T00:18:09.920Z,95757.06
2024-02-08T00:20:37.580Z,95756.81
2024-02-08T00:23:05.659Z,95765.06
2024-02-08T00:25:34.769Z,95759.97
2024-02-08T00:28:02.490Z,95757.78
2024-02-08T00:30:30.101Z,95754.84
2024-02-08T00:32:57.740Z,95756.22
2024-02-08T00:35:26.191Z,95758.91
2024-02-08T00:37:53.913Z,95753.88
2024-02-08T00:40:21.820Z,95757.59
2024-02-08T00:42:50.796Z,95758.97
2024-02-08T00:45:23.392Z,95752.03
2024-02-08T00:47:52.504Z,95745.88
2024-02-08T00:50:22.347Z,95746.94
2024-02-08T00:52:50.087Z,95750.44
2024-02-08T00:55:17.979Z,95746.63
2024-02-08T00:57:45.587Z,95745.25
2024-02-08T01:00:15.574Z,95739.44
2024-02-08T01:02:44.661Z,95744.50
2024-02-08T01:05:12.389Z,95733.63
2024-02-08T01:07:40.188Z,95739.84
2024-02-08T01:10:08.983Z,95741.47
2024-02-08T01:12:36.596Z,95737.97
2024-02-08T01:15:05.288Z,95736.13
2024-02-08T01:17:34.322Z,95745.97
2024-02-08T01:20:02.670Z,95743.06
2024-02-08T01:22:30.944Z,95747.59
2024-02-08T01:24:58.696Z,95747.59
2024-02-08T01:27:26.408Z,95740.72
2024-02-08T01:29:59.971Z,95740.47
2024-02-08T01:32:29.320Z,95736.53
2024-02-08T01:34:59.799Z,95736.44
2024-02-08T01:37:27.630Z,95733.22
2024-02-08T01:39:55.256Z,95731.13
2024-02-08T01:42:22.846Z,95729.81
2024-02-08T01:44:56.418Z,95724.72
2024-02-08T01:47:24.829Z,95731.66
2024-02-08T01:49:52.568Z,95723.66
2024-02-08T01:52:22.361Z,95721.75
2024-02-08T01:54:50.828Z,95728.69
2024-02-08T01:57:18.815Z,95716.41
2024-02-08T01:59:48.901Z,95714.56
2024-02-08T02:02:17.507Z,95715.59
2024-02-08T02:04:45.331Z,95710.03
2024-02-08T02:07:12.955Z,95708.16
2024-02-08T02:09:42.076Z,95704.44
2024-02-08T02:12:13.793Z,95705.81
2024-02-08T02:14:41.762Z,95701.28
2024-02-08T02:17:13.984Z,95702.66
2024-02-08T02:19:42.044Z,95685.78
2024-02-08T02:22:12.630Z,95693.28
2024-02-08T02:24:41.560Z,95692.66
2024-02-08T02:27:10.778Z,95680.88
2024-02-08T02:29:40.369Z,95680.88
2024-02-08T02:32:11.617Z,95681.75
2024-02-08T02:34:42.914Z,95686.78
2024-02-08T02:37:13.127Z,95684.09
2024-02-08T02:39:40.644Z,95680.38
2024-02-08T02:42:08.409Z,95687.91
2024-02-08T02:44:36.419Z,95688.94
2024-02-08T02:47:05.041Z,95683.88
2024-02-08T02:49:38.122Z,95678.78
2024-02-08T02:52:09.305Z,95679.84
2024-02-08T02:54:41.247Z,95680.69
2024-02-08T02:57:09.292Z,95680.94
2024-02-08T02:59:38.198Z,95684.88
2024-02-08T03:02:06.100Z,95682.22
2024-02-08T03:04:33.774Z,95682.22
2024-02-08T03:07:01.400Z,95686.53
2024-02-08T03:09:29.940Z,95678.78
2024-02-08T03:11:59.512Z,95682.72
2024-02-08T03:14:27.618Z,95682.56
2024-02-08T03:17:01.553Z,95687.63
2024-02-08T03:19:30.830Z,95682.00
2024-02-08T03:21:58.506Z,95682.00
2024-02-08T03:24:26.435Z,95679.56
2024-02-08T03:26:56.864Z,95679.84
2024-02-08T03:29:25.902Z,95682.50
2024-02-08T03:31:53.888Z,95684.09
2024-02-08T03:34:25.458Z,95686.53
2024-02-08T03:36:53.436Z,95678.78
2024-02-08T03:39:27.589Z,95678.53
2024-02-08T03:41:59.199Z,95678.25
2024-02-08T03:44:31.324Z,95671.09
2024-02-08T03:47:06.780Z,95675.59
2024-02-08T03:49:34.729Z,95676.19
2024-02-08T03:52:03.182Z,95683.91
2024-02-08T03:54:31.706Z,95661.66
2024-02-08T03:57:06.195Z,95680.94
2024-02-08T03:59:42.151Z,95681.50
2024-02-08T04:02:12.223Z,95688.44
2024-02-08T04:04:54.889Z,95680.75
2024-02-08T04:07:24.235Z,95684.25
2024-02-08T04:09:57.013Z,95683.44
2024-02-08T04:12:43.146Z,95685.03
2024-02-08T04:15:30.500Z,95678.41
2024-02-08T04:18:16.002Z,95677.03
2024-02-08T04:21:01.215Z,95676.81
2024-02-08T04:23:46.616Z,95666.38
2024-02-08T04:26:31.922Z,95677.28
2024-02-08T04:29:17.384Z,95672.25
2024-02-08T04:32:05.476Z,95669.59
2024-02-08T04:34:50.881Z,95662.84
2024-02-08T04:37:41.652Z,95665.59
2024-02-08T04:40:29.057Z,95674.38
2024-02-08T04:43:15.732Z,95671.72
2024-02-08T04:46:01.039Z,95674.94
2024-02-08T04:48:47.864Z,95674.13
2024-02-08T04:51:33.201Z,95657.53
2024-02-08T04:54:03.481Z,95675.19
2024-02-08T04:56:31.298Z,95673.91
2024-02-08T04:59:19.972Z,95668.56
2024-02-08T05:01:47.630Z,95677.13
2024-02-08T05:04:22.287Z,95682.94
2024-02-08T05:06:50.702Z,95680.25
2024-02-08T05:09:20.555Z,95680.03
2024-02-08T05:11:50.184Z,95683.28
2024-02-08T05:14:20.705Z,95675.97
2024-02-08T05:16:48.386Z,95675.75
2024-02-08T05:19:17.444Z,95676.56
2024-02-08T05:21:45.237Z,95677.13
2024-02-08T05:24:14.742Z,95673.38
2024-02-08T05:26:42.725Z,95675.59
2024-02-08T05:29:10.516Z,95673.47
2024-02-08T05:31:40.786Z,95672.63
2024-02-08T05:34:16.737Z,95672.91
2024-02-08T05:36:50.295Z,95663.03
2024-02-08T05:39:26.219Z,95665.69
2024-02-08T05:41:56.928Z,95661.72
2024-02-08T05:44:31.247Z,95664.41
2024-02-08T05:47:09.784Z,95659.63
2024-02-08T05:49:39.218Z,95663.41
2024-02-08T05:52:09.320Z,95666.06
2024-02-08T05:54:41.038Z,95669.28
2024-02-08T05:57:12.825Z,95662.03
2024-02-08T05:59:41.076Z,95666.59
2024-02-08T06:02:16.528Z,95663.66
2024-02-08T06:04:52.451Z,95663.66
2024-02-08T06:07:22.772Z,95670.28
2024-02-08T06:09:56.619Z,95669.25
2024-02-08T06:12:29.851Z,95665.25
2024-02-08T06:15:00.609Z,95669.28
2024-02-08T06:17:33.268Z,95666.63
2024-02-08T06:20:10.161Z,95671.47
2024-02-08T06:22:41.056Z,95665.31
2024-02-08T06:25:10.511Z,95662.41
2024-02-08T06:27:38.348Z,95671.25
2024-02-08T06:30:10.767Z,95674.47
2024-02-08T06:32:45.062Z,95662.19
2024-02-08T06:35:20.860Z,95669.66
2024-02-08T06:37:57.807Z,95670.97
2024-02-08T06:40:38.462Z,95669.94
2024-02-08T06:43:28.468Z,95665.09
2024-02-08T06:46:10.177Z,95681.16
2024-02-08T06:48:49.756Z,95671.78
2024-02-08T06:51:46.890Z,95677.97
2024-02-08T06:54:33.862Z,95678.25
2024-02-08T06:57:19.206Z,95676.13
2024-02-08T07:00:04.617Z,95666.31
2024-02-08T07:02:50.133Z,95684.50
2024-02-08T07:05:35.587Z,95680.25
2024-02-08T07:08:20.899Z,95680.78
2024-02-08T07:11:07.209Z,95678.94
2024-02-08T07:13:52.635Z,95683.75
2024-02-08T07:16:38.087Z,95683.28
2024-02-08T07:19:23.714Z,95681.16
2024-02-08T07:22:09.066Z,95676.38
2024-02-08T07:24:54.176Z,95676.94
2024-02-08T07:27:42.052Z,95683.31
2024-02-08T07:30:28.554Z,95684.69
2024-02-08T07:33:13.941Z,95685.50
2024-02-08T07:35:59.474Z,95680.97
2024-02-08T07:38:54.804Z,95686.03
2024-02-08T07:41:22.521Z,95690.31
2024-02-08T07:43:56.027Z,95689.88
2024-02-08T07:46:31.777Z,95680.78
2024-02-08T07:49:06.164Z,95681.91
2024-02-08T07:51:35.054Z,95683.53
2024-02-08T07:54:11.604Z,95689.41
2024-02-08T07:56:47.326Z,95683.81
2024-02-08T07:59:18.182Z,95684.91
2024-02-08T08:01:51.526Z,95694.56
2024-02-08T08:04:43.696Z,95688.97
2024-02-08T08:07:13.758Z,95687.34
2024-02-08T08:09:42.631Z,95688.69
2024-02-08T08:12:10.447Z,95686.56
2024-02-08T08:14:53.430Z,95690.53
2024-02-08T08:17:40.870Z,95695.06
2024-02-08T08:20:37.830Z,95684.38
2024-02-08T08:23:09.399Z,95685.75
2024-02-08T08:26:01.246Z,95683.88
2024-02-08T08:28:42.254Z,95681.81
2024-02-08T08:31:31.455Z,95683.50
2024-02-08T08:34:05.272Z,95676.31
2024-02-08T08:36:35.829Z,95673.75
2024-02-08T08:39:21.053Z,95672.69
2024-02-08T08:41:50.058Z,95665.69
2024-02-08T08:44:19.703Z,95667.09
2024-02-08T08:46:49.169Z,95671.63
2024-02-08T08:49:22.161Z,95666.63
2024-02-08T08:51:59.808Z,95660.50
2024-02-08T08:54:30.555Z,95662.47
2024-02-08T08:56:58.958Z,95669.69
2024-02-08T08:59:28.207Z,95668.13
2024-02-08T09:02:01.779Z,95671.94
2024-02-08T09:04:34.269Z,95673.38
2024-02-08T09:07:11.654Z,95673.69
2024-02-08T09:10:02.608Z,95676.09
2024-02-08T09:12:37.792Z,95670.72
2024-02-08T09:15:20.521Z,95669.13
2024-02-08T09:17:59.473Z,95667.56
2024-02-08T09:20:30.050Z,95670.75
2024-02-08T09:22:59.213Z,95660.56
2024-02-08T09:25:35.487Z,95674.47
2024-02-08T09:28:25.770Z,95667.25
2024-02-08T09:30:55.085Z,95668.84
2024-02-08T09:33:46.924Z,95673.69
2024-02-08T09:36:16.164Z,95667.03
2024-02-08T09:38:51.972Z,95668.88
2024-02-08T09:41:25.447Z,95671.06
2024-02-08T09:43:57.668Z,95672.94
2024-02-08T09:46:45.562Z,95664.97
2024-02-08T09:49:16.237Z,95662.03
2024-02-08T09:51:53.431Z,95667.38
2024-02-08T09:54:28.592Z,95666.03
2024-02-08T09:57:02.394Z,95665.88
2024-02-08T10:00:00.867Z,95658.16
2024-02-08T10:02:35.400Z,95660.13
2024-02-08T10:05:19.901Z,95669.78
2024-02-08T10:08:06.251Z,95664.75
2024-02-08T10:10:44.947Z,95667.72
2024-02-08T10:13:28.143Z,95665.94
2024-02-08T10:15:57.832Z,95666.66
2024-02-08T10:18:35.035Z,95670.13
2024-02-08T10:21:15.455Z,95662.44
2024-02-08T10:23:49.622Z,95662.19
2024-02-08T10:26:28.070Z,95641.78
2024-02-08T10:28:57.230Z,95663.84
2024-02-08T10:31:25.250Z,95659.84
2024-02-08T10:33:58.929Z,95650.75
2024-02-08T10:36:36.569Z,95650.22
2024-02-08T10:39:24.895Z,95628.75
2024-02-08T10:42:00.223Z,95646.19
2024-02-08T10:44:30.923Z,95650.78
2024-02-08T10:47:07.438Z,95643.84
2024-02-08T10:49:45.945Z,95639.31
2024-02-08T10:52:22.452Z,95625.91
2024-02-08T10:54:52.938Z,95621.38
2024-02-08T10:57:58.399Z,95617.31
2024-02-08T11:00:42.052Z,95603.38
2024-02-08T11:03:15.997Z,95601.25
2024-02-08T11:06:01.640Z,95598.78
2024-02-08T11:08:35.655Z,95593.41
2024-02-08T11:11:10.607Z,95588.06
2024-02-08T11:13:41.652Z,95582.19
2024-02-08T11:16:21.050Z,95587.53
2024-02-08T11:18:52.677Z,95587.53
2024-02-08T11:21:25.480Z,95583.25
2024-02-08T11:23:54.948Z,95574.38
2024-02-08T11:26:27.102Z,95561.53
2024-02-08T11:29:06.244Z,95577.06
2024-02-08T11:31:42.886Z,95585.38
2024-02-08T11:34:15.412Z,95579.72
2024-02-08T11:36:44.592Z,95566.00
2024-02-08T11:39:33.003Z,95564.13
2024-02-08T11:42:06.455Z,95561.66
2024-02-08T11:44:38.404Z,95557.34
2024-02-08T11:47:20.232Z,95546.84
2024-02-08T11:49:55.396Z,95554.06
2024-02-08T11:52:25.197Z,95553.94
2024-02-08T11:55:10.303Z,95547.16
2024-02-08T11:57:42.779Z,95548.47
2024-02-08T12:00:18.625Z,95543.88
2024-02-08T12:02:49.458Z,95550.81
2024-02-08T12:05:21.559Z,95546.88
2024-02-08T12:07:49.865Z,95536.38
2024-02-08T12:10:23.182Z,95531.75
2024-02-08T12:12:54.350Z,95533.13
2024-02-08T12:15:22.970Z,95516.34
2024-02-08T12:17:54.056Z,95531.28
2024-02-08T12:20:22.047Z,95515.81
2024-02-08T12:22:56.469Z,95518.47
2024-02-08T12:25:28.947Z,95517.75
2024-02-08T12:27:59.104Z,95515.81
2024-02-08T12:30:29.566Z,95513.34
2024-02-08T12:32:57.672Z,95518.53
2024-02-08T12:35:27.418Z,95504.31
2024-02-08T12:37:59.916Z,95497.53
2024-02-08T12:40:30.719Z,95504.59
2024-02-08T12:42:58.867Z,95500.34
2024-02-08T12:45:29.793Z,95500.94
2024-02-08T12:47:59.030Z,95500.97
2024-02-08T12:50:28.832Z,95507.44
2024-02-08T12:52:58.927Z,95499.63
2024-02-08T12:55:31.466Z,95492.91
2024-02-08T12:58:02.987Z,95499.69
2024-02-08T13:00:34.686Z,95494.84
2024-02-08T13:03:07.013Z,95487.81
2024-02-08T13:05:39.453Z,95486.47
2024-02-08T13:08:09.255Z,95478.88
2024-02-08T13:10:41.085Z,95477.81
2024-02-08T13:13:12.685Z,95469.50
2024-02-08T13:15:43.154Z,95470.78
2024-02-08T13:18:14.616Z,95461.94
2024-02-08T13:20:44.656Z,95462.72
2024-02-08T13:23:13.231Z,95450.09
2024-02-08T13:25:44.119Z,95454.19
2024-02-08T13:28:12.535Z,95445.47
2024-02-08T13:30:41.430Z,95450.06
2024-02-08T13:33:11.937Z,95439.59
2024-02-08T13:35:42.817Z,95436.97
2024-02-08T13:38:12.878Z,95418.53
2024-02-08T13:40:45.843Z,95430.88
2024-02-08T13:43:15.341Z,95428.78
2024-02-08T13:45:43.730Z,95421.31
2024-02-08T13:48:16.155Z,95424.50
2024-02-08T13:50:45.187Z,95424.50
2024-02-08T13:53:16.061Z,95419.16
2024-02-08T13:55:53.837Z,95418.09
2024-02-08T13:58:25.816Z,95413.56
2024-02-08T14:00:56.089Z,95410.09
2024-02-08T14:03:25.801Z,95410.09
2024-02-08T14:05:56.764Z,95407.16
2024-02-08T14:08:28.916Z,95403.13
2024-02-08T14:10:59.364Z,95396.69
2024-02-08T14:13:37.078Z,95402.03
2024-02-08T14:16:15.635Z,95398.53
2024-02-08T14:18:50.602Z,95394.53
2024-02-08T14:21:21.672Z,95396.94
2024-02-08T14:23:52.468Z,95385.97
2024-02-08T14:26:35.098Z,95389.97
2024-02-08T14:29:05.496Z,95386.25
2024-02-08T14:31:38.645Z,95390.78
2024-02-08T14:34:09.955Z,95388.91
2024-02-08T14:36:43.370Z,95390.25
2024-02-08T14:39:28.632Z,95398.03
2024-02-08T14:41:59.841Z,95397.78
2024-02-08T14:44:32.878Z,95391.63
2024-02-08T14:47:00.932Z,95390.03
2024-02-08T14:49:30.415Z,95391.66
2024-02-08T14:52:03.922Z,95380.16
2024-02-08T14:54:32.823Z,95394.06
2024-02-08T14:57:10.946Z,95395.41
2024-02-08T14:59:51.254Z,95390.84
2024-02-08T15:02:24.119Z,95390.84
2024-02-08T15:04:55.090Z,95392.47
2024-02-08T15:07:45.609Z,95394.09
2024-02-08T15:10:15.294Z,95393.84
2024-02-08T15:12:53.371Z,95393.03
2024-02-08T15:15:31.915Z,95393.56
2024-02-08T15:18:12.633Z,95393.84
2024-02-08T15:20:45.914Z,95398.94
2024-02-08T15:23:13.209Z,95394.38
2024-02-08T15:25:45.634Z,95393.59
2024-02-08T15:28:35.435Z,95395.19
2024-02-08T15:31:17.911Z,95399.22
2024-02-08T15:34:09.607Z,95398.41
2024-02-08T15:36:48.983Z,95391.44
2024-02-08T15:39:50.679Z,95377.53
2024-02-08T15:42:33.548Z,95389.06
2024-02-08T15:45:11.644Z,95371.66
2024-02-08T15:47:56.144Z,95385.31
2024-02-08T15:50:36.320Z,95376.47
2024-02-08T15:53:10.133Z,95366.81
2024-02-08T15:55:43.753Z,95367.63
2024-02-08T15:58:29.199Z,95361.22
2024-02-08T16:01:18.041Z,95369.75
2024-02-08T16:03:56.751Z,95371.66
2024-02-08T16:06:39.759Z,95365.50
2024-02-08T16:09:08.944Z,95366.31
2024-02-08T16:11:36.752Z,95370.31
2024-02-08T16:14:17.000Z,95376.50
2024-02-08T16:17:06.588Z,95374.88
2024-02-08T16:19:43.492Z,95370.06
2024-02-08T16:22:20.629Z,95377.84
2024-02-08T16:24:50.557Z,95377.03
2024-02-08T16:27:20.384Z,95376.50
2024-02-08T16:30:00.052Z,95383.19
2024-02-08T16:32:36.491Z,95379.44
2024-02-08T16:35:25.127Z,95368.47
2024-02-08T16:37:53.235Z,95362.28
2024-02-08T16:40:30.254Z,95359.38
2024-02-08T16:43:11.660Z,95358.56
2024-02-08T16:45:45.709Z,95342.25
2024-02-08T16:48:24.749Z,95352.13
2024-02-08T16:50:58.294Z,95347.06
2024-02-08T16:53:27.874Z,95346.22
2024-02-08T16:55:59.859Z,95348.91
2024-02-08T16:58:33.293Z,95350.81
2024-02-08T17:01:06.029Z,95351.88
2024-02-08T17:04:00.974Z,95354.81
2024-02-08T17:06:35.569Z,95351.88
2024-02-08T17:09:16.951Z,95339.56
2024-02-08T17:11:45.826Z,95354.56
2024-02-08T17:14:34.750Z,95328.56
2024-02-08T17:17:09.932Z,95351.88
2024-02-08T17:19:58.617Z,95349.47
2024-02-08T17:22:46.863Z,95355.91
2024-02-08T17:25:26.507Z,95350.53
2024-02-08T17:28:15.725Z,95346.78
2024-02-08T17:31:01.388Z,95348.66
2024-02-08T17:33:31.813Z,95349.22
2024-02-08T17:36:01.738Z,95335.00
2024-02-08T17:38:40.505Z,95332.59
2024-02-08T17:41:15.119Z,95319.50
2024-02-08T17:43:50.742Z,95323.22
2024-02-08T17:46:22.366Z,95316.81
2024-02-08T17:48:51.861Z,95324.28
2024-02-08T17:51:32.768Z,95324.28
2024-02-08T17:54:01.752Z,95321.91
2024-02-08T17:56:33.113Z,95323.50
2024-02-08T18:01:49.472Z,95319.75
2024-02-08T18:04:18.481Z,95315.72
2024-02-08T18:06:50.462Z,95310.09
2024-02-08T18:09:18.727Z,95322.44
2024-02-08T18:11:50.894Z,95320.81
2024-02-08T18:14:19.274Z,95314.66
2024-02-08T18:16:48.002Z,95320.59
2024-02-08T18:19:16.679Z,95305.81
2024-02-08T18:21:46.078Z,95310.09
2024-02-08T18:24:15.001Z,95298.88
2024-02-08T18:26:45.394Z,95300.47
2024-02-08T18:29:14.222Z,95307.69
2024-02-08T18:31:47.765Z,95307.16
2024-02-08T18:34:16.551Z,95285.75
2024-02-08T18:36:46.293Z,95287.41
2024-02-08T18:39:26.934Z,95296.22
2024-02-08T18:41:56.530Z,95297.81
2024-02-08T18:44:24.168Z,95284.97
2024-02-08T18:46:53.481Z,95287.66
2024-02-08T18:49:22.858Z,95299.69
2024-02-08T18:51:50.738Z,95289.00
2024-02-08T18:54:29.775Z,95286.59
2024-02-08T18:57:00.085Z,95291.16
2024-02-08T18:59:27.698Z,95286.59
2024-02-08T19:02:05.268Z,95286.84
2024-02-08T19:04:33.767Z,95282.03
2024-02-08T19:07:02.047Z,95284.97
2024-02-08T19:09:32.202Z,95277.50
2024-02-08T19:11:59.848Z,95284.47
2024-02-08T19:14:27.959Z,95281.78
2024-02-08T19:16:55.690Z,95271.34
2024-02-08T19:19:24.294Z,95271.34
2024-02-08T19:21:54.604Z,95272.97
2024-02-08T19:24:23.664Z,95277.25
2024-02-08T19:26:52.689Z,95274.31
2024-02-08T19:29:25.384Z,95279.91
2024-02-08T19:31:53.367Z,95281.50
2024-02-08T19:34:22.470Z,95283.41
2024-02-08T19:36:54.218Z,95281.81
2024-02-08T19:39:37.439Z,95283.66
2024-02-08T19:42:19.046Z,95287.41
2024-02-08T19:44:53.920Z,95281.78
2024-02-08T19:50:02.807Z,95285.78
2024-02-08T19:52:35.941Z,95286.06
2024-02-08T19:55:04.657Z,95281.78
2024-02-08T19:57:40.752Z,95288.72
2024-02-08T20:00:18.395Z,95278.03
2024-02-08T20:02:48.034Z,95280.72
2024-02-08T20:05:15.895Z,95271.63
2024-02-08T20:07:45.447Z,95270.00
2024-02-08T20:10:14.448Z,95278.03
2024-02-08T20:12:45.680Z,95284.19
2024-02-08T20:15:22.470Z,95281.25
2024-02-08T20:17:52.043Z,95267.38
2024-02-08T20:20:22.165Z,95277.00
2024-02-08T20:22:53.053Z,95268.66
2024-02-08T20:25:26.147Z,95271.91
2024-02-08T20:27:58.085Z,95271.38
2024-02-08T20:30:26.316Z,95274.31
2024-02-08T20:32:54.782Z,95272.97
2024-02-08T20:35:22.471Z,95265.22
2024-02-08T20:37:52.734Z,95266.81
2024-02-08T20:40:23.298Z,95273.22
2024-02-08T20:42:54.804Z,95249.44
2024-02-08T20:45:28.023Z,95263.59
2024-02-08T20:47:55.865Z,95259.84
2024-02-08T20:50:25.680Z,95262.25
2024-02-08T20:52:55.720Z,95262.53
2024-02-08T20:55:26.006Z,95264.94
2024-02-08T20:57:54.368Z,95272.44
2024-02-08T21:00:23.914Z,95263.59
2024-02-08T21:02:54.207Z,95259.06
2024-02-08T21:05:23.955Z,95242.47
2024-02-08T21:07:51.664Z,95248.09
2024-02-08T21:10:23.636Z,95243.84
2024-02-08T21:12:51.440Z,95243.28
2024-02-08T21:15:20.131Z,95241.41
2024-02-08T21:17:48.147Z,95246.78
2024-02-08T21:20:17.960Z,95241.16
2024-02-08T21:22:47.740Z,95224.56
2024-02-08T21:25:19.803Z,95210.41
2024-02-08T21:27:53.384Z,95188.19
2024-02-08T21:30:21.838Z,95209.34
2024-02-08T21:32:50.482Z,95224.31
2024-02-08T21:35:20.157Z,95228.31
2024-02-08T21:37:48.236Z,95241.16
2024-02-08T21:40:16.350Z,95255.88
2024-02-08T21:42:45.701Z,95248.38
2024-02-08T21:45:16.390Z,95254.78
2024-02-08T21:47:43.980Z,95247.03
2024-02-08T21:50:12.013Z,95254.25
2024-02-08T21:52:41.193Z,95257.97
2024-02-08T21:55:09.589Z,95249.44
2024-02-08T21:57:37.428Z,95252.63
2024-02-08T22:00:12.358Z,95256.38
2024-02-08T22:02:41.651Z,95247.03
2024-02-08T22:05:11.215Z,95251.31
2024-02-08T22:07:40.279Z,95245.97
2024-02-08T22:10:13.316Z,95234.72
2024-02-08T22:12:46.164Z,95235.81
2024-02-08T22:15:18.989Z,95230.19
2024-02-08T22:17:48.614Z,95244.63
2024-02-08T22:20:17.197Z,95249.41
2024-02-08T22:22:46.438Z,95244.06
2024-02-08T22:25:18.030Z,95247.56
2024-02-08T22:27:46.593Z,95240.34
2024-02-08T22:30:15.888Z,95241.69
2024-02-08T22:32:45.499Z,95240.06
2024-02-08T22:35:13.358Z,95245.41
2024-02-08T22:37:43.834Z,95233.38
2024-02-08T22:40:12.420Z,95227.50
2024-02-08T22:42:42.619Z,95224.59
2024-02-08T22:45:12.699Z,95194.91
2024-02-08T22:47:41.205Z,95206.94
2024-02-08T22:50:13.674Z,95212.53
2024-02-08T22:52:42.696Z,95228.59
2024-02-08T22:55:12.442Z,95231.78
2024-02-08T22:57:41.439Z,95218.16
2024-02-08T23:00:23.839Z,95205.06
2024-02-08T23:02:52.011Z,95221.09
2024-02-08T23:05:19.986Z,95211.72
2024-02-08T23:07:48.646Z,95202.38
2024-02-08T23:10:19.368Z,95197.59
2024-02-08T23:12:49.299Z,95220.31
2024-02-08T23:15:21.006Z,95226.72
2024-02-08T23:17:51.876Z,95233.66
2024-02-08T23:20:20.006Z,95217.09
2024-02-08T23:22:48.802Z,95216.03
2024-02-08T23:25:18.117Z,95226.16
2024-02-08T23:27:49.035Z,95222.97
2024-02-08T23:30:19.801Z,95228.56
2024-02-08T23:32:52.648Z,95226.44
2024-02-08T23:35:23.772Z,95218.69
2024-02-08T23:37:56.711Z,95221.38
2024-02-08T23:40:27.807Z,95205.06
2024-02-08T23:42:57.255Z,95219.75
2024-02-08T23:45:26.443Z,95218.69
2024-02-08T23:47:56.108Z,95214.16
2024-02-08T23:50:25.263Z,95206.13
2024-02-08T23:52:54.244Z,95210.66
2024-02-08T23:55:24.490Z,95197.28
2024-02-08T23:57:52.212Z,95194.09
